sensor_id;sensor_type;location;lat;lon;timestamp;temperature;humidity
77727;SHT30;68312;53.502;10.030;2023-04-25T00:01:16;7.53;89.76
77727;SHT30;68312;53.502;10.030;2023-04-25T00:03:41;7.57;89.26
77727;SHT30;68312;53.502;10.030;2023-04-25T00:06:06;7.57;89.97
77727;SHT30;68312;53.502;10.030;2023-04-25T00:08:32;7.54;90.22
77727;SHT30;68312;53.502;10.030;2023-04-25T00:10:59;7.52;90.53
77727;SHT30;68312;53.502;10.030;2023-04-25T00:13:25;7.47;90.74
77727;SHT30;68312;53.502;10.030;2023-04-25T00:15:52;7.46;91.15
77727;SHT30;68312;53.502;10.030;2023-04-25T00:18:18;7.46;91.31
77727;SHT30;68312;53.502;10.030;2023-04-25T00:20:44;7.46;91.58
77727;SHT30;68312;53.502;10.030;2023-04-25T00:23:09;7.46;92.24
77727;SHT30;68312;53.502;10.030;2023-04-25T00:25:35;7.39;92.44
77727;SHT30;68312;53.502;10.030;2023-04-25T00:28:00;7.36;92.64
77727;SHT30;68312;53.502;10.030;2023-04-25T00:30:26;7.40;93.08
77727;SHT30;68312;53.502;10.030;2023-04-25T00:32:51;7.36;91.62
77727;SHT30;68312;53.502;10.030;2023-04-25T00:35:17;7.35;89.92
77727;SHT30;68312;53.502;10.030;2023-04-25T00:37:42;7.32;90.54
77727;SHT30;68312;53.502;10.030;2023-04-25T00:40:08;7.30;90.84
77727;SHT30;68312;53.502;10.030;2023-04-25T00:42:35;7.29;90.42
77727;SHT30;68312;53.502;10.030;2023-04-25T00:45:01;7.30;90.82
77727;SHT30;68312;53.502;10.030;2023-04-25T00:47:28;7.30;89.76
77727;SHT30;68312;53.502;10.030;2023-04-25T00:49:54;7.25;89.07
77727;SHT30;68312;53.502;10.030;2023-04-25T00:52:19;7.22;89.18
77727;SHT30;68312;53.502;10.030;2023-04-25T00:54:45;7.27;88.92
77727;SHT30;68312;53.502;10.030;2023-04-25T00:57:11;7.23;87.18
77727;SHT30;68312;53.502;10.030;2023-04-25T00:59:37;7.19;86.95
77727;SHT30;68312;53.502;10.030;2023-04-25T01:02:04;7.22;85.57
77727;SHT30;68312;53.502;10.030;2023-04-25T01:04:30;7.25;85.48
77727;SHT30;68312;53.502;10.030;2023-04-25T01:06:56;7.25;84.63
77727;SHT30;68312;53.502;10.030;2023-04-25T01:09:22;7.20;86.51
77727;SHT30;68312;53.502;10.030;2023-04-25T01:11:48;7.16;87.52
77727;SHT30;68312;53.502;10.030;2023-04-25T01:14:14;7.12;86.37
77727;SHT30;68312;53.502;10.030;2023-04-25T01:16:40;7.14;86.16
77727;SHT30;68312;53.502;10.030;2023-04-25T01:19:09;7.09;83.75
77727;SHT30;68312;53.502;10.030;2023-04-25T01:21:35;7.04;83.48
77727;SHT30;68312;53.502;10.030;2023-04-25T01:24:01;6.99;83.69
77727;SHT30;68312;53.502;10.030;2023-04-25T01:26:27;6.99;83.52
77727;SHT30;68312;53.502;10.030;2023-04-25T01:28:53;6.96;85.29
77727;SHT30;68312;53.502;10.030;2023-04-25T01:31:19;6.98;83.64
77727;SHT30;68312;53.502;10.030;2023-04-25T01:33:46;6.94;84.14
77727;SHT30;68312;53.502;10.030;2023-04-25T01:36:12;6.91;85.18
77727;SHT30;68312;53.502;10.030;2023-04-25T01:38:39;6.83;85.25
77727;SHT30;68312;53.502;10.030;2023-04-25T01:41:05;6.83;84.30
77727;SHT30;68312;53.502;10.030;2023-04-25T01:43:30;6.83;83.06
77727;SHT30;68312;53.502;10.030;2023-04-25T01:45:56;6.85;83.36
77727;SHT30;68312;53.502;10.030;2023-04-25T01:48:22;6.87;83.32
77727;SHT30;68312;53.502;10.030;2023-04-25T01:50:48;6.88;82.83
77727;SHT30;68312;53.502;10.030;2023-04-25T01:53:14;6.84;83.44
77727;SHT30;68312;53.502;10.030;2023-04-25T01:55:39;6.81;84.12
77727;SHT30;68312;53.502;10.030;2023-04-25T01:58:05;6.81;84.14
77727;SHT30;68312;53.502;10.030;2023-04-25T02:00:30;6.80;84.60
77727;SHT30;68312;53.502;10.030;2023-04-25T02:02:59;6.75;83.77
77727;SHT30;68312;53.502;10.030;2023-04-25T02:05:24;6.77;84.17
77727;SHT30;68312;53.502;10.030;2023-04-25T02:07:50;6.73;82.67
77727;SHT30;68312;53.502;10.030;2023-04-25T02:10:15;6.74;82.79
77727;SHT30;68312;53.502;10.030;2023-04-25T02:12:41;6.81;81.44
77727;SHT30;68312;53.502;10.030;2023-04-25T02:15:07;6.81;81.01
77727;SHT30;68312;53.502;10.030;2023-04-25T02:17:32;6.74;80.69
77727;SHT30;68312;53.502;10.030;2023-04-25T02:19:58;6.68;81.75
77727;SHT30;68312;53.502;10.030;2023-04-25T02:22:23;6.63;81.26
77727;SHT30;68312;53.502;10.030;2023-04-25T02:24:49;6.63;81.18
77727;SHT30;68312;53.502;10.030;2023-04-25T02:27:14;6.57;80.82
77727;SHT30;68312;53.502;10.030;2023-04-25T02:29:40;6.61;78.28
77727;SHT30;68312;53.502;10.030;2023-04-25T02:32:05;6.54;78.06
77727;SHT30;68312;53.502;10.030;2023-04-25T02:34:31;6.48;79.63
77727;SHT30;68312;53.502;10.030;2023-04-25T02:36:56;6.44;79.29
77727;SHT30;68312;53.502;10.030;2023-04-25T02:39:22;6.37;78.77
77727;SHT30;68312;53.502;10.030;2023-04-25T02:41:47;6.38;78.04
77727;SHT30;68312;53.502;10.030;2023-04-25T02:44:13;6.40;77.24
77727;SHT30;68312;53.502;10.030;2023-04-25T02:46:38;6.46;76.43
77727;SHT30;68312;53.502;10.030;2023-04-25T02:49:04;6.46;76.56
77727;SHT30;68312;53.502;10.030;2023-04-25T02:51:29;6.46;76.95
77727;SHT30;68312;53.502;10.030;2023-04-25T02:53:54;6.47;75.54
77727;SHT30;68312;53.502;10.030;2023-04-25T02:56:20;6.44;76.57
77727;SHT30;68312;53.502;10.030;2023-04-25T02:58:45;6.44;76.02
77727;SHT30;68312;53.502;10.030;2023-04-25T03:01:11;6.46;76.15
77727;SHT30;68312;53.502;10.030;2023-04-25T03:03:36;6.44;75.99
77727;SHT30;68312;53.502;10.030;2023-04-25T03:06:02;6.46;74.94
77727;SHT30;68312;53.502;10.030;2023-04-25T03:08:27;6.38;76.39
77727;SHT30;68312;53.502;10.030;2023-04-25T03:10:53;6.34;76.76
77727;SHT30;68312;53.502;10.030;2023-04-25T03:13:18;6.37;75.61
77727;SHT30;68312;53.502;10.030;2023-04-25T03:15:44;6.41;75.15
77727;SHT30;68312;53.502;10.030;2023-04-25T03:18:09;6.40;75.26
77727;SHT30;68312;53.502;10.030;2023-04-25T03:20:34;6.40;74.80
77727;SHT30;68312;53.502;10.030;2023-04-25T03:23:00;6.38;73.10
77727;SHT30;68312;53.502;10.030;2023-04-25T03:25:25;6.27;74.48
77727;SHT30;68312;53.502;10.030;2023-04-25T03:27:51;6.23;75.36
77727;SHT30;68312;53.502;10.030;2023-04-25T03:30:16;6.17;74.22
77727;SHT30;68312;53.502;10.030;2023-04-25T03:32:42;6.13;74.49
77727;SHT30;68312;53.502;10.030;2023-04-25T03:35:08;6.09;75.21
77727;SHT30;68312;53.502;10.030;2023-04-25T03:37:33;5.99;75.88
77727;SHT30;68312;53.502;10.030;2023-04-25T03:39:59;5.85;76.95
77727;SHT30;68312;53.502;10.030;2023-04-25T03:42:24;5.84;75.32
77727;SHT30;68312;53.502;10.030;2023-04-25T03:44:51;5.71;75.55
77727;SHT30;68312;53.502;10.030;2023-04-25T03:47:17;5.78;74.89
77727;SHT30;68312;53.502;10.030;2023-04-25T03:49:42;5.78;74.94
77727;SHT30;68312;53.502;10.030;2023-04-25T03:52:08;5.84;72.72
77727;SHT30;68312;53.502;10.030;2023-04-25T03:54:33;5.84;73.28
77727;SHT30;68312;53.502;10.030;2023-04-25T03:56:58;5.85;72.97
77727;SHT30;68312;53.502;10.030;2023-04-25T03:59:24;5.82;74.02
77727;SHT30;68312;53.502;10.030;2023-04-25T04:01:49;5.77;74.98
77727;SHT30;68312;53.502;10.030;2023-04-25T04:04:15;5.77;73.59
77727;SHT30;68312;53.502;10.030;2023-04-25T04:06:40;5.75;73.59
77727;SHT30;68312;53.502;10.030;2023-04-25T04:09:06;5.71;72.56
77727;SHT30;68312;53.502;10.030;2023-04-25T04:11:31;5.65;72.85
77727;SHT30;68312;53.502;10.030;2023-04-25T04:13:57;5.62;73.56
77727;SHT30;68312;53.502;10.030;2023-04-25T04:16:22;5.57;73.46
77727;SHT30;68312;53.502;10.030;2023-04-25T04:18:48;5.51;74.58
77727;SHT30;68312;53.502;10.030;2023-04-25T04:21:13;5.48;73.96
77727;SHT30;68312;53.502;10.030;2023-04-25T04:23:39;5.54;73.48
77727;SHT30;68312;53.502;10.030;2023-04-25T04:26:04;5.48;73.70
77727;SHT30;68312;53.502;10.030;2023-04-25T04:28:30;5.51;73.63
77727;SHT30;68312;53.502;10.030;2023-04-25T04:30:55;5.46;72.75
77727;SHT30;68312;53.502;10.030;2023-04-25T04:33:21;5.46;73.58
77727;SHT30;68312;53.502;10.030;2023-04-25T04:35:46;5.43;73.47
77727;SHT30;68312;53.502;10.030;2023-04-25T04:38:13;5.34;74.62
77727;SHT30;68312;53.502;10.030;2023-04-25T04:40:38;5.34;74.67
77727;SHT30;68312;53.502;10.030;2023-04-25T04:43:04;5.34;75.06
77727;SHT30;68312;53.502;10.030;2023-04-25T04:45:29;5.23;75.64
77727;SHT30;68312;53.502;10.030;2023-04-25T04:47:55;5.20;75.82
77727;SHT30;68312;53.502;10.030;2023-04-25T04:50:20;5.17;76.80
77727;SHT30;68312;53.502;10.030;2023-04-25T04:52:46;5.26;74.87
77727;SHT30;68312;53.502;10.030;2023-04-25T04:55:12;5.38;74.58
77727;SHT30;68312;53.502;10.030;2023-04-25T04:57:37;5.46;73.39
77727;SHT30;68312;53.502;10.030;2023-04-25T05:00:04;5.57;73.56
77727;SHT30;68312;53.502;10.030;2023-04-25T05:02:31;5.64;72.54
77727;SHT30;68312;53.502;10.030;2023-04-25T05:04:56;5.69;72.17
77727;SHT30;68312;53.502;10.030;2023-04-25T05:07:22;5.79;71.11
77727;SHT30;68312;53.502;10.030;2023-04-25T05:09:47;5.81;72.01
77727;SHT30;68312;53.502;10.030;2023-04-25T05:12:13;5.79;72.16
77727;SHT30;68312;53.502;10.030;2023-04-25T05:14:38;5.82;71.54
77727;SHT30;68312;53.502;10.030;2023-04-25T05:17:04;5.84;71.87
77727;SHT30;68312;53.502;10.030;2023-04-25T05:19:29;5.85;71.51
77727;SHT30;68312;53.502;10.030;2023-04-25T05:21:54;5.82;72.54
77727;SHT30;68312;53.502;10.030;2023-04-25T05:24:20;5.84;70.84
77727;SHT30;68312;53.502;10.030;2023-04-25T05:26:45;5.89;70.43
77727;SHT30;68312;53.502;10.030;2023-04-25T05:29:11;5.86;72.87
77727;SHT30;68312;53.502;10.030;2023-04-25T05:31:36;5.94;70.86
77727;SHT30;68312;53.502;10.030;2023-04-25T05:34:02;5.86;73.31
77727;SHT30;68312;53.502;10.030;2023-04-25T05:36:28;5.84;75.15
77727;SHT30;68312;53.502;10.030;2023-04-25T05:38:53;5.78;73.68
77727;SHT30;68312;53.502;10.030;2023-04-25T05:41:19;5.72;74.57
77727;SHT30;68312;53.502;10.030;2023-04-25T05:43:44;5.74;74.97
77727;SHT30;68312;53.502;10.030;2023-04-25T05:46:10;5.78;74.30
77727;SHT30;68312;53.502;10.030;2023-04-25T05:48:37;5.86;75.04
77727;SHT30;68312;53.502;10.030;2023-04-25T05:51:03;5.95;74.53
77727;SHT30;68312;53.502;10.030;2023-04-25T05:53:29;6.03;75.32
77727;SHT30;68312;53.502;10.030;2023-04-25T05:55:54;6.13;75.19
77727;SHT30;68312;53.502;10.030;2023-04-25T05:58:20;6.15;75.35
77727;SHT30;68312;53.502;10.030;2023-04-25T06:00:45;6.15;74.68
77727;SHT30;68312;53.502;10.030;2023-04-25T06:03:11;6.26;73.50
77727;SHT30;68312;53.502;10.030;2023-04-25T06:05:36;6.33;74.01
77727;SHT30;68312;53.502;10.030;2023-04-25T06:08:02;6.47;72.96
77727;SHT30;68312;53.502;10.030;2023-04-25T06:10:28;6.54;72.23
77727;SHT30;68312;53.502;10.030;2023-04-25T06:12:53;6.54;72.37
77727;SHT30;68312;53.502;10.030;2023-04-25T06:15:19;6.47;71.37
77727;SHT30;68312;53.502;10.030;2023-04-25T06:17:44;6.54;72.35
77727;SHT30;68312;53.502;10.030;2023-04-25T06:20:10;6.71;72.26
77727;SHT30;68312;53.502;10.030;2023-04-25T06:22:36;6.83;71.54
77727;SHT30;68312;53.502;10.030;2023-04-25T06:25:01;6.75;72.36
77727;SHT30;68312;53.502;10.030;2023-04-25T06:27:27;6.67;72.86
77727;SHT30;68312;53.502;10.030;2023-04-25T06:29:52;6.68;72.69
77727;SHT30;68312;53.502;10.030;2023-04-25T06:32:18;6.73;72.37
77727;SHT30;68312;53.502;10.030;2023-04-25T06:34:43;6.78;72.64
77727;SHT30;68312;53.502;10.030;2023-04-25T06:37:09;6.73;72.21
77727;SHT30;68312;53.502;10.030;2023-04-25T06:39:34;6.71;72.41
77727;SHT30;68312;53.502;10.030;2023-04-25T06:42:00;6.58;73.58
77727;SHT30;68312;53.502;10.030;2023-04-25T06:44:25;6.54;72.91
77727;SHT30;68312;53.502;10.030;2023-04-25T06:46:51;6.51;72.27
77727;SHT30;68312;53.502;10.030;2023-04-25T06:49:17;6.74;72.40
77727;SHT30;68312;53.502;10.030;2023-04-25T06:51:42;6.85;73.30
77727;SHT30;68312;53.502;10.030;2023-04-25T06:54:07;6.92;72.28
77727;SHT30;68312;53.502;10.030;2023-04-25T06:56:33;7.12;71.94
77727;SHT30;68312;53.502;10.030;2023-04-25T06:58:58;7.19;71.95
77727;SHT30;68312;53.502;10.030;2023-04-25T07:01:24;7.32;72.81
77727;SHT30;68312;53.502;10.030;2023-04-25T07:03:49;7.35;70.24
77727;SHT30;68312;53.502;10.030;2023-04-25T07:06:15;7.45;71.41
77727;SHT30;68312;53.502;10.030;2023-04-25T07:08:40;7.49;69.96
77727;SHT30;68312;53.502;10.030;2023-04-25T07:11:06;7.33;70.06
77727;SHT30;68312;53.502;10.030;2023-04-25T07:13:31;7.23;70.77
77727;SHT30;68312;53.502;10.030;2023-04-25T07:15:57;7.25;70.02
77727;SHT30;68312;53.502;10.030;2023-04-25T07:18:22;7.35;70.85
77727;SHT30;68312;53.502;10.030;2023-04-25T07:20:48;7.49;70.06
77727;SHT30;68312;53.502;10.030;2023-04-25T07:23:13;7.56;68.80
77727;SHT30;68312;53.502;10.030;2023-04-25T07:25:39;7.53;69.24
77727;SHT30;68312;53.502;10.030;2023-04-25T07:28:04;7.77;68.37
77727;SHT30;68312;53.502;10.030;2023-04-25T07:30:30;7.80;68.13
77727;SHT30;68312;53.502;10.030;2023-04-25T07:32:56;7.91;67.80
77727;SHT30;68312;53.502;10.030;2023-04-25T07:35:21;7.88;67.70
77727;SHT30;68312;53.502;10.030;2023-04-25T07:37:47;7.91;67.99
77727;SHT30;68312;53.502;10.030;2023-04-25T07:40:13;7.84;68.01
77727;SHT30;68312;53.502;10.030;2023-04-25T07:42:38;7.80;68.73
77727;SHT30;68312;53.502;10.030;2023-04-25T07:45:04;7.81;67.77
77727;SHT30;68312;53.502;10.030;2023-04-25T07:47:30;7.69;69.21
77727;SHT30;68312;53.502;10.030;2023-04-25T07:49:56;7.91;68.18
77727;SHT30;68312;53.502;10.030;2023-04-25T07:52:21;8.14;67.43
77727;SHT30;68312;53.502;10.030;2023-04-25T07:54:47;8.22;66.98
77727;SHT30;68312;53.502;10.030;2023-04-25T07:57:12;8.32;68.03
77727;SHT30;68312;53.502;10.030;2023-04-25T07:59:38;8.33;65.97
77727;SHT30;68312;53.502;10.030;2023-04-25T08:02:03;8.80;66.45
77727;SHT30;68312;53.502;10.030;2023-04-25T08:04:28;8.97;63.58
77727;SHT30;68312;53.502;10.030;2023-04-25T08:06:54;9.05;62.74
77727;SHT30;68312;53.502;10.030;2023-04-25T08:09:20;8.74;61.93
77727;SHT30;68312;53.502;10.030;2023-04-25T08:11:46;9.18;63.30
77727;SHT30;68312;53.502;10.030;2023-04-25T08:14:12;10.20;59.45
77727;SHT30;68312;53.502;10.030;2023-04-25T08:16:38;10.21;57.15
77727;SHT30;68312;53.502;10.030;2023-04-25T08:19:04;10.64;58.48
77727;SHT30;68312;53.502;10.030;2023-04-25T08:21:29;10.37;56.52
77727;SHT30;68312;53.502;10.030;2023-04-25T08:23:55;10.21;56.83
77727;SHT30;68312;53.502;10.030;2023-04-25T08:26:20;10.25;56.98
77727;SHT30;68312;53.502;10.030;2023-04-25T08:28:46;10.31;55.73
77727;SHT30;68312;53.502;10.030;2023-04-25T08:31:12;10.17;56.91
77727;SHT30;68312;53.502;10.030;2023-04-25T08:33:37;9.87;57.33
77727;SHT30;68312;53.502;10.030;2023-04-25T08:36:03;9.79;58.14
77727;SHT30;68312;53.502;10.030;2023-04-25T08:38:29;9.68;57.50
77727;SHT30;68312;53.502;10.030;2023-04-25T08:40:56;10.04;56.07
77727;SHT30;68312;53.502;10.030;2023-04-25T08:43:23;9.94;55.92
77727;SHT30;68312;53.502;10.030;2023-04-25T08:45:52;9.80;57.77
77727;SHT30;68312;53.502;10.030;2023-04-25T08:48:18;10.48;55.69
77727;SHT30;68312;53.502;10.030;2023-04-25T08:50:54;10.72;54.66
77727;SHT30;68312;53.502;10.030;2023-04-25T08:53:26;10.36;56.09
77727;SHT30;68312;53.502;10.030;2023-04-25T08:55:59;9.87;56.05
77727;SHT30;68312;53.502;10.030;2023-04-25T08:58:27;9.45;57.83
77727;SHT30;68312;53.502;10.030;2023-04-25T09:00:53;9.07;59.57
77727;SHT30;68312;53.502;10.030;2023-04-25T09:03:19;8.76;61.40
77727;SHT30;68312;53.502;10.030;2023-04-25T09:05:45;8.43;67.10
77727;SHT30;68312;53.502;10.030;2023-04-25T09:08:11;7.99;67.13
77727;SHT30;68312;53.502;10.030;2023-04-25T09:10:37;7.88;66.53
77727;SHT30;68312;53.502;10.030;2023-04-25T09:13:14;7.29;67.68
77727;SHT30;68312;53.502;10.030;2023-04-25T09:15:54;7.30;67.65
77727;SHT30;68312;53.502;10.030;2023-04-25T09:18:25;7.15;68.53
77727;SHT30;68312;53.502;10.030;2023-04-25T09:24:00;6.83;67.87
77727;SHT30;68312;53.502;10.030;2023-04-25T09:26:26;6.94;68.68
77727;SHT30;68312;53.502;10.030;2023-04-25T09:29:05;7.18;68.95
77727;SHT30;68312;53.502;10.030;2023-04-25T09:31:33;7.43;68.14
77727;SHT30;68312;53.502;10.030;2023-04-25T09:34:00;7.97;65.49
77727;SHT30;68312;53.502;10.030;2023-04-25T09:36:27;8.35;63.48
77727;SHT30;68312;53.502;10.030;2023-04-25T09:38:53;9.46;59.04
77727;SHT30;68312;53.502;10.030;2023-04-25T09:41:24;10.04;57.77
77727;SHT30;68312;53.502;10.030;2023-04-25T09:43:50;10.21;57.87
77727;SHT30;68312;53.502;10.030;2023-04-25T09:46:16;10.76;57.81
77727;SHT30;68312;53.502;10.030;2023-04-25T09:48:49;11.22;56.80
77727;SHT30;68312;53.502;10.030;2023-04-25T09:51:15;9.99;63.35
77727;SHT30;68312;53.502;10.030;2023-04-25T09:53:46;8.64;68.41
77727;SHT30;68312;53.502;10.030;2023-04-25T09:56:13;8.20;68.91
77727;SHT30;68312;53.502;10.030;2023-04-25T09:58:40;8.41;66.98
77727;SHT30;68312;53.502;10.030;2023-04-25T10:01:09;8.33;65.43
77727;SHT30;68312;53.502;10.030;2023-04-25T10:03:38;8.31;65.84
77727;SHT30;68312;53.502;10.030;2023-04-25T10:06:09;8.41;65.00
77727;SHT30;68312;53.502;10.030;2023-04-25T10:08:40;8.79;64.49
77727;SHT30;68312;53.502;10.030;2023-04-25T10:11:08;9.03;63.92
77727;SHT30;68312;53.502;10.030;2023-04-25T10:13:35;9.31;63.60
77727;SHT30;68312;53.502;10.030;2023-04-25T10:16:04;10.47;59.39
77727;SHT30;68312;53.502;10.030;2023-04-25T10:18:32;11.41;57.20
77727;SHT30;68312;53.502;10.030;2023-04-25T10:21:03;12.19;52.61
77727;SHT30;68312;53.502;10.030;2023-04-25T10:23:31;12.46;51.38
77727;SHT30;68312;53.502;10.030;2023-04-25T10:25:58;12.59;52.08
77727;SHT30;68312;53.502;10.030;2023-04-25T10:28:25;11.51;55.40
77727;SHT30;68312;53.502;10.030;2023-04-25T10:31:04;9.99;59.31
77727;SHT30;68312;53.502;10.030;2023-04-25T10:33:40;11.61;53.78
77727;SHT30;68312;53.502;10.030;2023-04-25T10:36:17;12.81;50.93
77727;SHT30;68312;53.502;10.030;2023-04-25T10:38:45;13.10;45.91
77727;SHT30;68312;53.502;10.030;2023-04-25T10:41:13;12.37;46.66
77727;SHT30;68312;53.502;10.030;2023-04-25T10:43:45;12.53;49.24
77727;SHT30;68312;53.502;10.030;2023-04-25T10:46:25;11.18;53.40
77727;SHT30;68312;53.502;10.030;2023-04-25T10:48:55;11.05;55.51
77727;SHT30;68312;53.502;10.030;2023-04-25T10:54:06;10.92;53.39
77727;SHT30;68312;53.502;10.030;2023-04-25T10:59:11;11.39;52.21
77727;SHT30;68312;53.502;10.030;2023-04-25T11:01:48;11.66;51.30
77727;SHT30;68312;53.502;10.030;2023-04-25T11:04:33;11.34;52.57
77727;SHT30;68312;53.502;10.030;2023-04-25T11:07:16;10.95;54.30
77727;SHT30;68312;53.502;10.030;2023-04-25T11:09:54;10.30;57.54
77727;SHT30;68312;53.502;10.030;2023-04-25T11:12:19;10.18;56.05
77727;SHT30;68312;53.502;10.030;2023-04-25T11:14:45;9.99;56.61
77727;SHT30;68312;53.502;10.030;2023-04-25T11:17:10;10.57;55.99
77727;SHT30;68312;53.502;10.030;2023-04-25T11:19:35;11.67;53.56
77727;SHT30;68312;53.502;10.030;2023-04-25T11:22:02;12.06;51.42
77727;SHT30;68312;53.502;10.030;2023-04-25T11:24:31;13.48;47.52
77727;SHT30;68312;53.502;10.030;2023-04-25T11:27:02;13.62;45.02
77727;SHT30;68312;53.502;10.030;2023-04-25T11:29:33;13.56;45.27
77727;SHT30;68312;53.502;10.030;2023-04-25T11:32:00;13.31;45.33
77727;SHT30;68312;53.502;10.030;2023-04-25T11:34:28;13.63;45.83
77727;SHT30;68312;53.502;10.030;2023-04-25T11:36:54;13.46;48.17
77727;SHT30;68312;53.502;10.030;2023-04-25T11:39:20;13.99;47.68
77727;SHT30;68312;53.502;10.030;2023-04-25T11:41:47;12.83;47.88
77727;SHT30;68312;53.502;10.030;2023-04-25T11:44:16;11.18;54.25
77727;SHT30;68312;53.502;10.030;2023-04-25T11:46:43;8.77;62.13
77727;SHT30;68312;53.502;10.030;2023-04-25T11:49:10;7.84;66.17
77727;SHT30;68312;53.502;10.030;2023-04-25T11:54:05;7.85;62.78
77727;SHT30;68312;53.502;10.030;2023-04-25T11:56:31;8.08;65.15
77727;SHT30;68312;53.502;10.030;2023-04-25T11:59:05;8.20;62.46
77727;SHT30;68312;53.502;10.030;2023-04-25T12:01:33;8.45;63.18
77727;SHT30;68312;53.502;10.030;2023-04-25T12:04:24;9.00;62.03
77727;SHT30;68312;53.502;10.030;2023-04-25T12:06:52;9.65;60.98
77727;SHT30;68312;53.502;10.030;2023-04-25T12:09:28;10.79;59.32
77727;SHT30;68312;53.502;10.030;2023-04-25T12:11:57;11.09;54.86
77727;SHT30;68312;53.502;10.030;2023-04-25T12:14:32;12.04;52.00
77727;SHT30;68312;53.502;10.030;2023-04-25T12:17:02;12.45;50.11
77727;SHT30;68312;53.502;10.030;2023-04-25T12:19:37;12.30;50.71
77727;SHT30;68312;53.502;10.030;2023-04-25T12:22:19;12.43;51.44
77727;SHT30;68312;53.502;10.030;2023-04-25T12:24:46;13.25;50.57
77727;SHT30;68312;53.502;10.030;2023-04-25T12:27:15;13.89;43.58
77727;SHT30;68312;53.502;10.030;2023-04-25T12:29:52;13.56;42.58
77727;SHT30;68312;53.502;10.030;2023-04-25T12:32:19;13.03;44.00
77727;SHT30;68312;53.502;10.030;2023-04-25T12:34:44;12.32;45.45
77727;SHT30;68312;53.502;10.030;2023-04-25T12:37:10;11.02;49.10
77727;SHT30;68312;53.502;10.030;2023-04-25T12:39:36;10.45;51.20
77727;SHT30;68312;53.502;10.030;2023-04-25T12:42:01;10.37;52.30
77727;SHT30;68312;53.502;10.030;2023-04-25T12:44:26;10.31;52.10
77727;SHT30;68312;53.502;10.030;2023-04-25T12:46:52;10.27;53.30
77727;SHT30;68312;53.502;10.030;2023-04-25T12:49:17;10.51;52.82
77727;SHT30;68312;53.502;10.030;2023-04-25T12:51:43;11.46;51.25
77727;SHT30;68312;53.502;10.030;2023-04-25T12:54:08;12.42;50.11
77727;SHT30;68312;53.502;10.030;2023-04-25T12:56:35;13.07;47.25
77727;SHT30;68312;53.502;10.030;2023-04-25T12:59:01;13.93;47.49
77727;SHT30;68312;53.502;10.030;2023-04-25T13:01:27;12.61;48.07
77727;SHT30;68312;53.502;10.030;2023-04-25T13:03:52;11.64;52.02
77727;SHT30;68312;53.502;10.030;2023-04-25T13:06:19;10.75;54.04
77727;SHT30;68312;53.502;10.030;2023-04-25T13:08:46;10.00;55.54
77727;SHT30;68312;53.502;10.030;2023-04-25T13:11:12;9.68;59.16
77727;SHT30;68312;53.502;10.030;2023-04-25T13:13:37;9.22;59.28
77727;SHT30;68312;53.502;10.030;2023-04-25T13:16:04;10.11;58.27
77727;SHT30;68312;53.502;10.030;2023-04-25T13:18:31;11.31;54.36
77727;SHT30;68312;53.502;10.030;2023-04-25T13:20:58;10.73;54.79
77727;SHT30;68312;53.502;10.030;2023-04-25T13:23:27;10.44;55.26
77727;SHT30;68312;53.502;10.030;2023-04-25T13:25:54;9.28;59.66
77727;SHT30;68312;53.502;10.030;2023-04-25T13:28:21;8.26;64.34
77727;SHT30;68312;53.502;10.030;2023-04-25T13:30:47;7.63;67.19
77727;SHT30;68312;53.502;10.030;2023-04-25T13:33:12;7.49;68.94
77727;SHT30;68312;53.502;10.030;2023-04-25T13:35:38;7.64;67.65
77727;SHT30;68312;53.502;10.030;2023-04-25T13:38:04;7.94;66.99
77727;SHT30;68312;53.502;10.030;2023-04-25T13:40:29;9.13;62.87
77727;SHT30;68312;53.502;10.030;2023-04-25T13:42:56;10.06;59.99
77727;SHT30;68312;53.502;10.030;2023-04-25T13:45:22;10.40;58.99
77727;SHT30;68312;53.502;10.030;2023-04-25T13:47:47;10.96;56.76
77727;SHT30;68312;53.502;10.030;2023-04-25T13:50:13;11.66;54.38
77727;SHT30;68312;53.502;10.030;2023-04-25T13:52:39;11.39;53.94
77727;SHT30;68312;53.502;10.030;2023-04-25T13:55:06;11.44;54.96
77727;SHT30;68312;53.502;10.030;2023-04-25T13:57:34;11.91;53.11
77727;SHT30;68312;53.502;10.030;2023-04-25T14:00:01;9.34;61.26
77727;SHT30;68312;53.502;10.030;2023-04-25T14:02:28;7.87;68.78
77727;SHT30;68312;53.502;10.030;2023-04-25T14:04:53;6.98;70.89
77727;SHT30;68312;53.502;10.030;2023-04-25T14:07:19;6.73;70.72
77727;SHT30;68312;53.502;10.030;2023-04-25T14:09:44;6.73;70.33
77727;SHT30;68312;53.502;10.030;2023-04-25T14:12:10;6.78;70.29
77727;SHT30;68312;53.502;10.030;2023-04-25T14:14:35;6.89;73.08
77727;SHT30;68312;53.502;10.030;2023-04-25T14:17:01;7.08;70.54
77727;SHT30;68312;53.502;10.030;2023-04-25T14:19:26;7.63;69.90
77727;SHT30;68312;53.502;10.030;2023-04-25T14:21:52;9.35;62.63
77727;SHT30;68312;53.502;10.030;2023-04-25T14:24:17;10.10;59.55
77727;SHT30;68312;53.502;10.030;2023-04-25T14:26:43;9.93;59.94
77727;SHT30;68312;53.502;10.030;2023-04-25T14:29:09;10.83;56.53
77727;SHT30;68312;53.502;10.030;2023-04-25T14:31:35;11.27;53.58
77727;SHT30;68312;53.502;10.030;2023-04-25T14:34:02;11.84;52.59
77727;SHT30;68312;53.502;10.030;2023-04-25T14:36:28;11.53;51.86
77727;SHT30;68312;53.502;10.030;2023-04-25T14:38:54;10.59;53.35
77727;SHT30;68312;53.502;10.030;2023-04-25T14:41:20;10.04;54.14
77727;SHT30;68312;53.502;10.030;2023-04-25T14:43:45;9.58;56.34
77727;SHT30;68312;53.502;10.030;2023-04-25T14:46:11;9.21;58.20
77727;SHT30;68312;53.502;10.030;2023-04-25T14:48:36;8.66;58.23
77727;SHT30;68312;53.502;10.030;2023-04-25T14:51:02;9.05;57.87
77727;SHT30;68312;53.502;10.030;2023-04-25T14:53:28;10.03;54.78
77727;SHT30;68312;53.502;10.030;2023-04-25T14:55:53;11.31;51.22
77727;SHT30;68312;53.502;10.030;2023-04-25T14:58:19;11.98;50.20
77727;SHT30;68312;53.502;10.030;2023-04-25T15:00:46;12.87;47.65
77727;SHT30;68312;53.502;10.030;2023-04-25T15:03:12;12.67;46.88
77727;SHT30;68312;53.502;10.030;2023-04-25T15:05:38;12.91;47.70
77727;SHT30;68312;53.502;10.030;2023-04-25T15:08:05;12.39;47.23
77727;SHT30;68312;53.502;10.030;2023-04-25T15:10:30;12.22;47.36
77727;SHT30;68312;53.502;10.030;2023-04-25T15:12:56;12.68;48.83
77727;SHT30;68312;53.502;10.030;2023-04-25T15:15:21;11.84;47.35
77727;SHT30;68312;53.502;10.030;2023-04-25T15:17:47;10.91;49.60
77727;SHT30;68312;53.502;10.030;2023-04-25T15:20:13;9.78;55.86
77727;SHT30;68312;53.502;10.030;2023-04-25T15:22:43;9.43;57.79
77727;SHT30;68312;53.502;10.030;2023-04-25T15:25:10;8.67;61.56
77727;SHT30;68312;53.502;10.030;2023-04-25T15:27:38;8.56;63.52
77727;SHT30;68312;53.502;10.030;2023-04-25T15:30:08;8.57;62.48
77727;SHT30;68312;53.502;10.030;2023-04-25T15:32:34;8.99;61.06
77727;SHT30;68312;53.502;10.030;2023-04-25T15:35:04;9.85;58.25